Cale, Indiana
Current Conditions -  °F | °C
As of 11:55 AM on Monday 24 Nov 2014 (Local Time) from KDCY Reporting Station
Overcast Overcast  
Wind Chill: 37°   Ceiling: 4300
Heat Index: 44°   Visibility: 10mi
Dew Point: 38°   Wind: 16mph
Humidity: 78%   Direction: 240°WSW
Pressure: 29.66"   Gusts: 25mph
Location:  38.6262°N, 86.7615°W
Report Text: KDCY 241755Z AUTO 24014G22KT 10SM SCT034 OVC043 07/03 A2966 RMK AO2 60001 T00660031 10141 20043
Loading
Personal Weather Stations






























Interactive Weather Map New forecast layout! Learn more

10-Day Weather Forecast

Advertisements
Track Severe Weather on mobile